Time;durP1;ratioP1;P1;durP2;ratioP2;P2;SDS_P1;SDS_P2;PMS_P1;PMS_P2;Temp;Humidity;BMP_temperature;BMP_pressure;BME280_temperature;BME280_humidity;BME280_pressure;Samples;Min_cycle;Max_cycle;Signal;HPM_P1;HPM_P2
2023/11/20 00:01:10;;;;;;;5.60;1.60;;;11.30;98.00;;;;;;5034218;28;20489;-86
2023/11/20 00:03:38;;;;;;;8.00;1.97;;;11.30;98.00;;;;;;5034830;28;20453;-86
2023/11/20 00:06:07;;;;;;;4.33;1.87;;;11.30;98.00;;;;;;5035156;28;20618;-86
2023/11/20 00:08:34;;;;;;;7.73;1.87;;;11.30;98.00;;;;;;5034241;28;20473;-86
2023/11/20 00:11:01;;;;;;;11.03;1.70;;;11.20;98.00;;;;;;5034269;28;20544;-85
2023/11/20 00:13:28;;;;;;;6.80;1.93;;;11.20;98.00;;;;;;5035468;28;20830;-86
2023/11/20 00:15:55;;;;;;;12.87;2.17;;;11.30;98.00;;;;;;5034333;28;20469;-86
2023/11/20 00:18:23;;;;;;;11.30;1.90;;;11.30;98.00;;;;;;5034230;28;20527;-86
2023/11/20 00:20:50;;;;;;;3.73;2.00;;;11.30;98.00;;;;;;5033463;28;20489;-86
2023/11/20 00:23:17;;;;;;;9.07;2.30;;;11.30;98.00;;;;;;5033860;28;20456;-86
2023/11/20 00:25:44;;;;;;;9.03;1.90;;;11.30;98.00;;;;;;5034625;28;20557;-86
2023/11/20 00:28:11;;;;;;;4.70;1.77;;;11.30;98.00;;;;;;5034025;28;21029;-86
2023/11/20 00:30:38;;;;;;;4.10;2.00;;;11.30;98.00;;;;;;5034030;28;20957;-86
2023/11/20 00:33:06;;;;;;;7.33;1.90;;;11.30;98.00;;;;;;5033489;28;20554;-86
2023/11/20 00:35:34;;;;;;;4.70;1.70;;;11.30;98.00;;;;;;5034010;28;20548;-85
2023/11/20 00:38:02;;;;;;;4.90;2.10;;;11.20;98.00;;;;;;5034036;28;20461;-85
2023/11/20 00:40:29;;;;;;;6.70;1.90;;;11.30;98.00;;;;;;5033539;28;20556;-85
2023/11/20 00:42:56;;;;;;;4.63;1.60;;;11.30;98.00;;;;;;5033986;28;20460;-86
2023/11/20 00:45:23;;;;;;;4.40;2.00;;;11.30;98.00;;;;;;5034169;28;20529;-85
2023/11/20 00:47:50;;;;;;;6.57;1.90;;;11.30;98.00;;;;;;5034044;28;20952;-86
2023/11/20 00:50:17;;;;;;;5.63;1.60;;;11.30;98.00;;;;;;5033041;28;20460;-85
2023/11/20 00:52:45;;;;;;;6.77;2.30;;;11.30;98.00;;;;;;5033508;28;20530;-87
2023/11/20 00:55:12;;;;;;;3.87;1.83;;;11.20;98.00;;;;;;5033743;28;20880;-85
2023/11/20 00:57:40;;;;;;;4.30;2.00;;;11.20;98.00;;;;;;5033861;28;20643;-85
2023/11/20 01:00:11;;;;;;;7.43;2.30;;;11.20;98.00;;;;;;5033261;28;20858;-86
2023/11/20 01:02:38;;;;;;;4.63;1.70;;;11.10;98.00;;;;;;5033823;28;20986;-86
2023/11/20 01:05:07;;;;;;;9.57;1.73;;;11.20;98.00;;;;;;5033715;28;20534;-86
2023/11/20 01:07:34;;;;;;;5.53;1.90;;;11.10;98.00;;;;;;5033495;28;20469;-86
2023/11/20 01:10:03;;;;;;;4.70;1.63;;;11.10;98.00;;;;;;5032641;28;20508;-85
2023/11/20 01:12:30;;;;;;;10.03;2.20;;;11.20;98.00;;;;;;5033269;28;20482;-86
2023/11/20 01:14:57;;;;;;;6.37;1.73;;;11.20;98.00;;;;;;5033653;28;20451;-86
2023/11/20 01:17:24;;;;;;;4.53;2.13;;;11.10;98.00;;;;;;5033182;28;20542;-86
2023/11/20 01:19:51;;;;;;;7.73;2.00;;;11.10;98.00;;;;;;5032934;28;20519;-86
2023/11/20 01:22:18;;;;;;;7.77;2.30;;;11.10;98.00;;;;;;5032984;28;20486;-86
2023/11/20 01:24:45;;;;;;;3.00;1.87;;;11.10;98.00;;;;;;5033311;28;20532;-86
2023/11/20 01:27:14;;;;;;;3.13;1.80;;;11.20;98.00;;;;;;5033083;28;20525;-86
2023/11/20 01:29:41;;;;;;;10.33;1.80;;;11.20;98.00;;;;;;5033184;28;20947;-86
2023/11/20 01:32:08;;;;;;;12.33;2.60;;;11.30;98.00;;;;;;5033124;28;20552;-83
2023/11/20 01:34:34;;;;;;;5.67;2.13;;;11.30;98.00;;;;;;5033293;28;20458;-84
2023/11/20 01:37:01;;;;;;;3.47;2.03;;;11.30;98.00;;;;;;5033523;28;20487;-84
2023/11/20 01:39:28;;;;;;;6.87;1.80;;;11.20;98.00;;;;;;5033084;28;20490;-84
2023/11/20 01:41:55;;;;;;;7.70;2.20;;;11.20;98.00;;;;;;5032931;28;20513;-84
2023/11/20 01:44:24;;;;;;;4.17;1.77;;;11.20;98.00;;;;;;5032883;28;20483;-84
2023/11/20 01:46:51;;;;;;;11.83;2.30;;;11.20;98.00;;;;;;5035898;28;20997;-84
2023/11/20 01:49:18;;;;;;;6.43;2.17;;;11.30;98.00;;;;;;5036172;28;20455;-84
2023/11/20 01:51:45;;;;;;;6.03;1.90;;;11.20;98.00;;;;;;5036934;28;20501;-85
2023/11/20 01:54:13;;;;;;;5.20;2.13;;;11.30;98.00;;;;;;5037512;28;20461;-85
2023/11/20 01:56:40;;;;;;;5.90;2.00;;;11.20;98.00;;;;;;5036765;28;20470;-85
2023/11/20 01:59:08;;;;;;;5.73;1.63;;;11.30;98.00;;;;;;5036589;28;20476;-85
2023/11/20 02:01:37;;;;;;;4.30;1.93;;;11.30;98.00;;;;;;5036606;28;20918;-85
2023/11/20 02:04:05;;;;;;;3.03;1.63;;;11.40;98.00;;;;;;5036866;28;20470;-85
2023/11/20 02:06:32;;;;;;;8.10;1.63;;;11.40;98.00;;;;;;5037912;28;20455;-85
2023/11/20 02:08:59;;;;;;;4.50;2.03;;;11.40;98.00;;;;;;5037699;28;20540;-85
2023/11/20 02:11:27;;;;;;;9.13;2.17;;;11.40;98.00;;;;;;5036212;28;20539;-85
2023/11/20 02:13:56;;;;;;;7.57;2.00;;;11.40;98.00;;;;;;5036813;28;20981;-85
2023/11/20 02:16:24;;;;;;;11.07;2.00;;;11.40;98.00;;;;;;5036886;28;20899;-84
2023/11/20 02:18:53;;;;;;;1.83;1.50;;;11.50;98.00;;;;;;5037014;28;20451;-84
2023/11/20 02:21:20;;;;;;;5.50;2.03;;;11.50;98.00;;;;;;5036887;28;20489;-86
2023/11/20 02:23:47;;;;;;;3.27;1.60;;;11.50;98.00;;;;;;5037055;28;20459;-85
2023/11/20 02:26:29;;;;;;;7.30;1.90;;;11.50;98.00;;;;;;5037234;28;20529;-85
2023/11/20 02:29:06;;;;;;;2.83;1.70;;;11.50;98.00;;;;;;5037230;28;20458;-84
2023/11/20 02:31:35;;;;;;;7.23;1.90;;;11.60;98.00;;;;;;5036401;28;20478;-85
2023/11/20 02:34:02;;;;;;;5.43;2.57;;;11.60;98.00;;;;;;5034352;28;20478;-85
2023/11/20 02:36:29;;;;;;;2.60;1.73;;;11.60;98.00;;;;;;5036875;28;20471;-85
2023/11/20 02:38:56;;;;;;;4.00;2.00;;;11.60;98.00;;;;;;5036285;28;20610;-84
2023/11/20 02:41:23;;;;;;;4.43;2.10;;;11.50;98.00;;;;;;5035808;28;20488;-85
2023/11/20 02:43:50;;;;;;;7.17;2.40;;;11.60;98.00;;;;;;5036372;28;20473;-85
2023/11/20 02:46:18;;;;;;;7.97;1.87;;;11.50;98.00;;;;;;5036205;28;20481;-84
2023/11/20 02:48:46;;;;;;;8.80;2.00;;;11.50;98.00;;;;;;5036114;28;20456;-85
2023/11/20 02:51:13;;;;;;;3.93;1.60;;;11.40;98.00;;;;;;5035284;28;20482;-85
2023/11/20 02:53:40;;;;;;;3.83;1.90;;;11.50;98.00;;;;;;5035995;28;20462;-86
2023/11/20 02:56:08;;;;;;;5.53;1.80;;;11.50;98.00;;;;;;5035640;28;20556;-84
2023/11/20 02:58:35;;;;;;;3.50;1.90;;;11.60;98.00;;;;;;5035451;28;20522;-85
2023/11/20 03:01:01;;;;;;;3.13;1.80;;;11.60;98.00;;;;;;5035501;28;20514;-85
2023/11/20 03:03:28;;;;;;;2.73;1.60;;;11.60;98.00;;;;;;5036477;28;20472;-85
2023/11/20 03:05:56;;;;;;;5.53;2.10;;;11.60;98.00;;;;;;5036103;28;20469;-85
2023/11/20 03:08:23;;;;;;;6.20;2.37;;;11.70;98.00;;;;;;5036823;28;20466;-85
2023/11/20 03:10:51;;;;;;;2.90;1.60;;;11.70;98.00;;;;;;5035422;28;20484;-84
2023/11/20 03:13:18;;;;;;;7.20;1.93;;;11.60;98.00;;;;;;5036046;28;20744;-85
2023/11/20 03:15:45;;;;;;;6.13;1.93;;;11.60;98.00;;;;;;5035377;28;20518;-85
2023/11/20 03:18:12;;;;;;;3.43;1.60;;;11.60;98.00;;;;;;5036171;28;20546;-85
2023/11/20 03:20:39;;;;;;;4.20;1.93;;;11.70;98.00;;;;;;5035149;28;20487;-86
2023/11/20 03:23:07;;;;;;;5.10;2.00;;;11.70;98.00;;;;;;5035765;28;20476;-86
2023/11/20 03:25:34;;;;;;;4.63;1.97;;;11.60;98.00;;;;;;5035684;28;20471;-85
2023/11/20 03:28:03;;;;;;;3.17;2.07;;;11.70;98.00;;;;;;5035317;28;20465;-85
2023/11/20 03:30:32;;;;;;;5.73;1.87;;;11.70;98.00;;;;;;5035495;28;20481;-85
2023/11/20 03:32:59;;;;;;;4.13;1.60;;;11.70;98.00;;;;;;5035851;28;20509;-85
2023/11/20 03:35:26;;;;;;;2.30;1.50;;;11.60;98.00;;;;;;5035614;28;20820;-85
2023/11/20 03:37:53;;;;;;;4.07;1.90;;;11.60;98.00;;;;;;5034757;28;20468;-85
2023/11/20 03:40:22;;;;;;;5.23;1.80;;;11.60;98.00;;;;;;5035187;28;20494;-85
2023/11/20 03:42:49;;;;;;;3.93;1.77;;;11.70;98.00;;;;;;5035264;28;20949;-85
2023/11/20 03:45:17;;;;;;;2.47;1.50;;;11.70;98.00;;;;;;5035118;28;20472;-86
2023/11/20 03:47:44;;;;;;;6.10;1.70;;;11.60;98.00;;;;;;5035619;28;20465;-85
2023/11/20 03:50:11;;;;;;;3.27;1.90;;;11.60;98.00;;;;;;5035183;28;20465;-85
2023/11/20 03:52:38;;;;;;;2.20;1.73;;;11.60;98.00;;;;;;5034775;28;20519;-85
2023/11/20 03:55:06;;;;;;;2.90;1.67;;;11.50;98.00;;;;;;5034908;28;20466;-85
2023/11/20 03:57:34;;;;;;;4.10;1.67;;;11.50;98.00;;;;;;5034556;28;20457;-85
2023/11/20 04:00:01;;;;;;;4.30;1.67;;;11.50;98.00;;;;;;5034344;28;20541;-85
2023/11/20 04:02:28;;;;;;;6.40;1.80;;;11.50;98.00;;;;;;5034982;28;20496;-85
2023/11/20 04:04:55;;;;;;;2.50;1.70;;;11.60;98.00;;;;;;5035347;28;20462;-85
2023/11/20 04:07:23;;;;;;;4.03;1.87;;;11.60;98.00;;;;;;5035265;28;20521;-85
2023/11/20 04:09:50;;;;;;;3.97;1.60;;;11.50;98.00;;;;;;5033833;28;20459;-85
2023/11/20 04:12:17;;;;;;;3.00;1.80;;;11.50;98.00;;;;;;5034674;28;20554;-85
2023/11/20 04:14:45;;;;;;;3.43;1.90;;;11.50;98.00;;;;;;5034579;28;20488;-85
2023/11/20 04:17:12;;;;;;;3.83;2.00;;;11.50;98.00;;;;;;5034644;28;20527;-86
2023/11/20 04:19:39;;;;;;;9.20;2.30;;;11.50;98.00;;;;;;5034306;28;20518;-85
2023/11/20 04:22:07;;;;;;;4.10;1.77;;;11.50;98.00;;;;;;5034796;28;20477;-86
2023/11/20 04:24:34;;;;;;;4.70;1.80;;;11.50;98.00;;;;;;5034855;28;20519;-85
2023/11/20 04:27:01;;;;;;;3.97;1.67;;;11.50;98.00;;;;;;5034295;28;20497;-85
2023/11/20 04:29:28;;;;;;;5.37;1.70;;;11.50;98.00;;;;;;5034409;28;20889;-85
2023/11/20 04:31:56;;;;;;;7.60;1.90;;;11.50;98.00;;;;;;5034507;28;20478;-83
2023/11/20 04:34:23;;;;;;;3.00;1.60;;;11.50;98.00;;;;;;5034954;28;20460;-83
2023/11/20 04:36:50;;;;;;;2.13;1.50;;;11.40;98.00;;;;;;5034180;28;20464;-86
2023/11/20 04:39:17;;;;;;;9.40;1.70;;;11.40;98.00;;;;;;5033217;28;20461;-85
2023/11/20 04:41:45;;;;;;;4.07;1.73;;;11.50;98.00;;;;;;5034137;28;20494;-85
2023/11/20 04:44:12;;;;;;;4.10;1.93;;;11.50;98.00;;;;;;5033548;28;20467;-85
2023/11/20 04:46:39;;;;;;;5.57;1.70;;;11.50;98.00;;;;;;5034233;28;20460;-86
2023/11/20 04:49:07;;;;;;;4.50;1.80;;;11.50;98.00;;;;;;5034264;28;20453;-85
2023/11/20 04:51:35;;;;;;;5.67;1.83;;;11.60;98.00;;;;;;5033994;28;20484;-85
2023/11/20 04:54:02;;;;;;;4.23;1.70;;;11.50;98.00;;;;;;5033970;28;20508;-85
2023/11/20 04:56:29;;;;;;;4.80;1.87;;;11.50;98.00;;;;;;5034155;28;20453;-85
2023/11/20 04:58:56;;;;;;;5.07;1.70;;;11.50;98.00;;;;;;5034963;28;20461;-85
2023/11/20 05:01:23;;;;;;;3.37;1.70;;;11.60;98.00;;;;;;5034391;28;20496;-85
2023/11/20 05:03:50;;;;;;;6.73;2.30;;;11.50;98.00;;;;;;5034877;28;20464;-84
2023/11/20 05:06:18;;;;;;;5.43;2.33;;;11.50;98.00;;;;;;5034827;28;20464;-85
2023/11/20 05:08:46;;;;;;;3.53;1.80;;;11.50;98.00;;;;;;5034734;28;20462;-85
2023/11/20 05:11:13;;;;;;;5.10;2.10;;;11.50;98.00;;;;;;5033683;28;20655;-84
2023/11/20 05:13:40;;;;;;;5.27;2.00;;;11.40;98.00;;;;;;5034588;28;20499;-85
2023/11/20 05:16:08;;;;;;;7.97;1.70;;;11.30;98.00;;;;;;5033439;28;20534;-84
2023/11/20 05:18:35;;;;;;;5.57;1.97;;;11.30;98.00;;;;;;5033711;28;20501;-85
2023/11/20 05:21:03;;;;;;;4.20;1.73;;;11.30;98.00;;;;;;5033209;28;20682;-85
2023/11/20 05:23:32;;;;;;;4.13;2.10;;;11.40;98.00;;;;;;5034204;28;20501;-84
2023/11/20 05:25:59;;;;;;;4.20;1.67;;;11.40;98.00;;;;;;5033697;28;20462;-84
2023/11/20 05:28:26;;;;;;;3.17;1.60;;;11.50;98.00;;;;;;5034170;28;20471;-86
2023/11/20 05:30:53;;;;;;;5.30;2.33;;;11.40;98.00;;;;;;5033210;28;20896;-87
2023/11/20 05:33:22;;;;;;;5.53;1.60;;;11.40;98.00;;;;;;5033798;28;20460;-85
2023/11/20 05:35:49;;;;;;;2.47;1.87;;;11.30;98.00;;;;;;5035769;28;20823;-84
2023/11/20 05:38:16;;;;;;;5.50;1.80;;;11.40;98.00;;;;;;5034366;28;20456;-85
2023/11/20 05:40:46;;;;;;;6.50;1.90;;;11.40;98.00;;;;;;5033583;28;20500;-84
2023/11/20 05:43:13;;;;;;;1.63;1.53;;;11.40;98.00;;;;;;5033538;28;20564;-85
2023/11/20 05:45:40;;;;;;;6.40;1.83;;;11.50;98.00;;;;;;5033766;28;20526;-86
2023/11/20 05:48:07;;;;;;;4.63;2.20;;;11.50;98.00;;;;;;5034268;28;20459;-84
2023/11/20 05:50:34;;;;;;;2.47;1.60;;;11.60;98.00;;;;;;5033347;28;20468;-85
2023/11/20 05:53:01;;;;;;;8.93;1.73;;;11.60;98.00;;;;;;5034008;28;20467;-84
2023/11/20 05:55:32;;;;;;;2.70;1.50;;;11.60;98.00;;;;;;5033322;28;20547;-85
2023/11/20 05:58:00;;;;;;;2.73;1.80;;;11.60;98.00;;;;;;5033881;28;20468;-85
2023/11/20 06:00:27;;;;;;;3.97;1.70;;;11.60;98.00;;;;;;5033371;28;20492;-85
2023/11/20 06:02:54;;;;;;;5.27;1.67;;;11.50;98.00;;;;;;5033650;28;20471;-84
2023/11/20 06:05:22;;;;;;;3.47;1.67;;;11.60;98.00;;;;;;5033488;28;21015;-84
2023/11/20 06:07:49;;;;;;;9.23;1.70;;;11.50;98.00;;;;;;5034264;28;20469;-85
2023/11/20 06:10:16;;;;;;;8.33;1.70;;;11.50;98.00;;;;;;5032853;28;20459;-84
2023/11/20 06:12:43;;;;;;;7.30;1.90;;;11.50;98.00;;;;;;5033900;28;20492;-85
2023/11/20 06:15:12;;;;;;;2.10;1.47;;;11.60;98.00;;;;;;5034116;28;20471;-85
2023/11/20 06:17:39;;;;;;;3.70;1.87;;;11.60;98.00;;;;;;5033959;28;20492;-85
2023/11/20 06:20:08;;;;;;;2.93;1.60;;;11.60;98.00;;;;;;5034663;28;20524;-84
2023/11/20 06:22:35;;;;;;;1.87;1.60;;;11.70;98.00;;;;;;5035062;28;20509;-85
2023/11/20 06:25:03;;;;;;;3.53;1.60;;;11.70;98.00;;;;;;5035757;28;20552;-84
2023/11/20 06:27:31;;;;;;;3.80;1.60;;;11.60;98.00;;;;;;5035328;28;20471;-84
2023/11/20 06:29:58;;;;;;;5.13;1.67;;;11.60;98.00;;;;;;5034253;28;20492;-85
2023/11/20 06:32:26;;;;;;;5.73;1.77;;;11.60;98.00;;;;;;5036268;28;20536;-85
2023/11/20 06:34:53;;;;;;;2.53;1.50;;;11.60;98.00;;;;;;5038061;28;20462;-85
2023/11/20 06:37:21;;;;;;;3.50;1.60;;;11.50;98.00;;;;;;5038040;28;20464;-84
2023/11/20 06:39:48;;;;;;;5.73;1.50;;;11.50;98.00;;;;;;5037525;28;20460;-85
2023/11/20 06:42:15;;;;;;;6.30;1.73;;;11.60;98.00;;;;;;5037869;28;20491;-84
2023/11/20 06:44:42;;;;;;;3.40;1.77;;;11.60;98.00;;;;;;5037854;28;21033;-84
2023/11/20 06:47:10;;;;;;;4.87;1.60;;;11.80;98.00;;;;;;5037668;28;20472;-85
2023/11/20 06:49:41;;;;;;;3.40;1.70;;;11.70;98.00;;;;;;5037375;28;21013;-84
2023/11/20 06:52:08;;;;;;;6.77;1.70;;;11.70;98.00;;;;;;5037444;28;20511;-85
2023/11/20 06:54:35;;;;;;;4.03;1.67;;;11.70;98.00;;;;;;5037855;28;20862;-84
2023/11/20 06:57:02;;;;;;;7.73;1.57;;;11.60;98.00;;;;;;5037819;28;20491;-85
2023/11/20 06:59:29;;;;;;;4.60;1.67;;;11.70;98.00;;;;;;5045187;28;20463;-84
2023/11/20 07:01:56;;;;;;;7.00;1.77;;;11.70;98.00;;;;;;5050549;28;20498;-85
2023/11/20 07:04:23;;;;;;;8.60;2.13;;;11.70;98.00;;;;;;5051256;28;20832;-84
2023/11/20 07:06:52;;;;;;;8.40;3.30;;;11.80;98.00;;;;;;5050780;28;20460;-85
2023/11/20 07:09:25;;;;;;;6.07;2.20;;;11.80;98.00;;;;;;5049382;28;20957;-84
2023/11/20 07:11:52;;;;;;;5.53;1.87;;;11.90;98.00;;;;;;5050730;28;20826;-86
2023/11/20 07:14:19;;;;;;;3.77;1.60;;;11.90;98.00;;;;;;5050180;28;20463;-84
2023/11/20 07:16:46;;;;;;;3.13;1.60;;;11.90;98.00;;;;;;5050548;28;20456;-85
2023/11/20 07:19:13;;;;;;;5.10;1.93;;;11.90;98.00;;;;;;5050161;28;20456;-88
2023/11/20 07:21:43;;;;;;;3.20;1.67;;;12.00;98.00;;;;;;5051240;28;20504;-85
2023/11/20 07:24:12;;;;;;;4.43;1.90;;;12.00;98.00;;;;;;5045181;28;20467;-86
2023/11/20 07:26:40;;;;;;;6.20;1.80;;;11.90;98.00;;;;;;5049082;28;20500;-84
2023/11/20 07:29:08;;;;;;;3.70;1.80;;;11.90;98.00;;;;;;5049145;28;20478;-85
2023/11/20 07:31:37;;;;;;;3.80;1.73;;;11.90;98.00;;;;;;5047132;28;20505;-85
2023/11/20 07:34:06;;;;;;;4.77;1.83;;;11.80;98.00;;;;;;5049331;28;20523;-86
2023/11/20 07:36:33;;;;;;;2.97;1.53;;;11.90;98.00;;;;;;5047945;28;20451;-85
2023/11/20 07:39:00;;;;;;;5.63;1.60;;;12.00;98.00;;;;;;5048419;28;20467;-86
2023/11/20 07:41:29;;;;;;;9.13;2.30;;;12.00;98.00;;;;;;5049105;28;20522;-85
2023/11/20 07:43:56;;;;;;;7.83;1.70;;;12.10;98.00;;;;;;5050101;28;20895;-85
2023/11/20 07:46:23;;;;;;;4.87;1.63;;;12.20;98.00;;;;;;5051239;28;20469;-86
2023/11/20 07:48:50;;;;;;;5.70;1.60;;;12.20;98.00;;;;;;5050351;28;20473;-86
2023/11/20 07:51:18;;;;;;;3.43;1.57;;;12.10;98.00;;;;;;5050231;28;20486;-85
2023/11/20 07:53:45;;;;;;;4.07;1.87;;;12.10;98.00;;;;;;5051758;28;20499;-86
2023/11/20 07:56:13;;;;;;;5.17;2.53;;;12.10;98.00;;;;;;5052120;28;20495;-86
2023/11/20 07:58:42;;;;;;;3.00;1.50;;;12.20;98.00;;;;;;5050542;28;20472;-86
2023/11/20 08:01:09;;;;;;;7.10;1.90;;;12.20;98.00;;;;;;5052316;28;20494;-87
2023/11/20 08:03:36;;;;;;;5.83;1.70;;;12.20;98.00;;;;;;5052139;28;21037;-86
2023/11/20 08:06:03;;;;;;;3.13;1.40;;;12.20;98.00;;;;;;5051935;28;20477;-85
2023/11/20 08:08:30;;;;;;;11.03;2.10;;;12.20;98.00;;;;;;5051135;28;20460;-85
2023/11/20 08:10:57;;;;;;;6.60;1.70;;;12.20;98.00;;;;;;5047101;28;20483;-85
2023/11/20 08:13:24;;;;;;;2.87;1.70;;;12.20;98.00;;;;;;5048466;28;20479;-85
2023/11/20 08:15:52;;;;;;;5.13;1.70;;;12.20;98.00;;;;;;5048160;28;20462;-87
2023/11/20 08:18:20;;;;;;;6.70;1.80;;;12.30;98.00;;;;;;5047781;28;20461;-86
2023/11/20 08:20:48;;;;;;;4.70;1.67;;;12.40;98.00;;;;;;5047848;28;20486;-86
2023/11/20 08:23:16;;;;;;;4.10;1.67;;;12.30;98.00;;;;;;5047057;28;20465;-86
2023/11/20 08:25:43;;;;;;;3.60;1.60;;;12.20;98.00;;;;;;5046774;28;20470;-86
2023/11/20 08:28:10;;;;;;;4.10;1.70;;;12.20;98.00;;;;;;5045497;28;20442;-86
2023/11/20 08:30:37;;;;;;;2.87;1.57;;;12.30;98.00;;;;;;5046490;28;20479;-86
2023/11/20 08:33:07;;;;;;;4.43;1.80;;;12.40;98.00;;;;;;5047314;28;20461;-85
2023/11/20 08:35:34;;;;;;;3.83;1.63;;;12.30;98.00;;;;;;5044354;28;20468;-85
2023/11/20 08:38:01;;;;;;;3.17;1.77;;;12.30;98.00;;;;;;5046690;28;20473;-85
2023/11/20 08:40:29;;;;;;;4.37;1.87;;;12.30;98.00;;;;;;5049351;28;20466;-86
2023/11/20 08:42:57;;;;;;;3.50;1.80;;;12.30;98.00;;;;;;5051137;28;20523;-86
2023/11/20 08:45:24;;;;;;;5.07;2.00;;;12.40;98.00;;;;;;5047765;28;20479;-85
2023/11/20 08:47:53;;;;;;;3.23;2.10;;;12.50;98.00;;;;;;5047775;28;20801;-85
2023/11/20 08:50:25;;;;;;;4.70;1.90;;;12.50;98.00;;;;;;5039844;28;20524;-85
2023/11/20 08:52:52;;;;;;;3.07;1.70;;;12.60;98.00;;;;;;5027394;28;21108;-85
2023/11/20 08:55:20;;;;;;;14.43;2.03;;;12.50;98.00;;;;;;5040734;28;20489;-85
2023/11/20 08:57:47;;;;;;;4.80;2.10;;;12.50;98.00;;;;;;5045938;28;20467;-85
2023/11/20 09:00:15;;;;;;;5.33;1.93;;;12.50;98.00;;;;;;5047218;28;20458;-85
2023/11/20 09:02:43;;;;;;;4.73;1.70;;;12.50;98.00;;;;;;5045817;28;20494;-85
2023/11/20 09:05:12;;;;;;;3.30;1.80;;;12.40;98.00;;;;;;5046373;28;20461;-85
2023/11/20 09:07:41;;;;;;;2.97;1.80;;;12.40;98.00;;;;;;5047813;28;20471;-85
2023/11/20 09:10:10;;;;;;;7.93;2.00;;;12.30;98.00;;;;;;5048530;28;20457;-86
2023/11/20 09:12:37;;;;;;;3.10;1.60;;;12.40;98.00;;;;;;5047157;28;20481;-86
2023/11/20 09:15:06;;;;;;;7.97;2.17;;;12.40;98.00;;;;;;5047875;28;20461;-85
2023/11/20 09:17:34;;;;;;;9.37;2.03;;;12.40;98.00;;;;;;5044773;28;20513;-86
2023/11/20 09:20:02;;;;;;;5.60;1.60;;;12.50;98.00;;;;;;5045756;28;20463;-86
2023/11/20 09:22:29;;;;;;;7.90;2.70;;;12.50;98.00;;;;;;5047380;28;20513;-86
2023/11/20 09:24:58;;;;;;;3.87;1.63;;;12.50;98.00;;;;;;5046422;28;20468;-85
2023/11/20 09:27:25;;;;;;;4.10;1.90;;;12.60;98.00;;;;;;5045482;28;20460;-85
2023/11/20 09:29:52;;;;;;;3.03;1.87;;;12.60;98.00;;;;;;5045062;28;20745;-85
2023/11/20 09:32:20;;;;;;;10.63;1.80;;;12.70;98.00;;;;;;5045638;28;20537;-85
2023/11/20 09:34:46;;;;;;;5.23;1.80;;;12.90;98.00;;;;;;5045918;28;20464;-85
2023/11/20 09:37:14;;;;;;;3.53;1.80;;;13.00;98.00;;;;;;5042177;28;20456;-85
2023/11/20 09:39:42;;;;;;;5.00;1.80;;;13.00;98.00;;;;;;5043827;28;20452;-85
2023/11/20 09:42:10;;;;;;;5.90;1.90;;;13.00;98.00;;;;;;5045353;28;20493;-85
2023/11/20 09:44:40;;;;;;;4.00;2.10;;;13.00;98.00;;;;;;5044158;28;20559;-85
2023/11/20 09:47:10;;;;;;;4.00;1.80;;;13.10;98.00;;;;;;5045204;28;20987;-85
2023/11/20 09:49:40;;;;;;;7.90;1.83;;;13.00;98.00;;;;;;5045236;28;20496;-85
2023/11/20 09:52:09;;;;;;;11.60;2.13;;;13.00;98.00;;;;;;5043327;28;20484;-86
2023/11/20 09:54:39;;;;;;;4.73;2.07;;;13.00;98.00;;;;;;5043148;28;20490;-86
2023/11/20 09:57:09;;;;;;;2.07;1.70;;;13.10;98.00;;;;;;5044079;28;20462;-86
2023/11/20 09:59:39;;;;;;;5.30;1.90;;;13.10;98.00;;;;;;5042660;28;20464;-85
2023/11/20 10:02:06;;;;;;;4.20;2.50;;;13.10;98.00;;;;;;5043022;28;20496;-86
2023/11/20 10:04:34;;;;;;;8.40;1.90;;;13.00;98.00;;;;;;5043151;28;20692;-86
2023/11/20 10:07:07;;;;;;;3.23;1.60;;;12.90;98.00;;;;;;5047496;28;20455;-86
2023/11/20 10:09:36;;;;;;;1.60;1.50;;;12.90;98.00;;;;;;5035617;28;21004;-88
2023/11/20 10:12:06;;;;;;;3.20;1.53;;;12.80;98.00;;;;;;5036012;28;20491;-89
2023/11/20 10:14:34;;;;;;;2.70;1.83;;;12.80;98.00;;;;;;5036284;28;20795;-88
2023/11/20 10:17:03;;;;;;;4.27;1.80;;;12.90;98.00;;;;;;5037109;28;20460;-89
2023/11/20 10:19:30;;;;;;;2.67;1.50;;;13.10;98.00;;;;;;5037144;28;20466;-88
2023/11/20 10:21:58;;;;;;;3.53;1.53;;;13.20;98.00;;;;;;5037243;28;21049;-89
2023/11/20 10:24:26;;;;;;;4.27;1.80;;;13.30;98.00;;;;;;5036838;28;20451;-89
2023/11/20 10:26:53;;;;;;;3.33;1.73;;;13.30;98.00;;;;;;5036833;28;20455;-89
2023/11/20 10:29:20;;;;;;;8.50;1.87;;;13.40;98.00;;;;;;5035909;28;20470;-89
2023/11/20 10:31:49;;;;;;;4.57;1.60;;;13.50;98.00;;;;;;5035801;28;20488;-88
2023/11/20 10:34:21;;;;;;;2.30;1.70;;;13.60;98.00;;;;;;5035354;28;20457;-88
2023/11/20 10:37:05;;;;;;;3.83;1.60;;;13.60;98.00;;;;;;5035843;28;20451;-88
2023/11/20 10:39:33;;;;;;;3.57;1.83;;;13.70;98.00;;;;;;5035587;28;20453;-88
2023/11/20 10:42:00;;;;;;;3.07;1.80;;;13.80;98.00;;;;;;5036109;28;20496;-88
2023/11/20 10:44:29;;;;;;;5.13;1.80;;;13.90;98.00;;;;;;5035913;28;20471;-88
2023/11/20 10:46:56;;;;;;;2.93;1.60;;;13.80;98.00;;;;;;5035830;28;20461;-87
2023/11/20 10:49:28;;;;;;;6.43;2.00;;;13.80;98.00;;;;;;5034537;28;20456;-88
2023/11/20 10:52:04;;;;;;;5.70;1.93;;;13.90;98.00;;;;;;5034941;28;20477;-90
2023/11/20 10:54:56;;;;;;;3.83;2.07;;;14.10;98.00;;;;;;5035124;28;20530;-89
2023/11/20 10:57:34;;;;;;;4.13;1.70;;;14.40;98.00;;;;;;5032994;28;20949;-89
2023/11/20 11:00:36;;;;;;;3.77;1.60;;;14.40;98.00;;;;;;5034805;28;20470;-89
2023/11/20 11:03:06;;;;;;;3.63;1.50;;;14.40;98.00;;;;;;5002050;28;20484;-89
2023/11/20 11:05:37;;;;;;;3.07;1.73;;;14.20;98.00;;;;;;5035088;28;20462;-90
2023/11/20 11:08:08;;;;;;;2.53;1.53;;;14.00;98.00;;;;;;5035253;28;20956;-89
2023/11/20 11:10:41;;;;;;;3.00;1.53;;;13.90;98.00;;;;;;5035028;28;20509;-88
2023/11/20 11:13:23;;;;;;;9.83;1.80;;;13.80;98.00;;;;;;5034718;28;20466;-90
2023/11/20 11:15:56;;;;;;;2.33;1.50;;;13.80;98.00;;;;;;5035144;28;20551;-88
2023/11/20 11:18:46;;;;;;;1.60;1.33;;;13.70;98.00;;;;;;5035118;28;21007;-89
2023/11/20 11:21:40;;;;;;;2.80;1.50;;;13.40;98.00;;;;;;5035343;28;20515;-88
2023/11/20 11:24:21;;;;;;;4.13;1.40;;;13.10;98.00;;;;;;5033224;28;20464;-89
2023/11/20 11:26:55;;;;;;;2.30;1.43;;;12.70;98.00;;;;;;5035445;28;20481;-90
2023/11/20 11:29:30;;;;;;;3.83;1.60;;;12.40;98.00;;;;;;5035368;28;20492;-89
2023/11/20 11:32:38;;;;;;;1.50;1.40;;;12.30;98.00;;;;;;5035140;28;20478;-90
2023/11/20 11:35:32;;;;;;;5.80;1.70;;;12.60;98.00;;;;;;5036041;28;20483;-90
2023/11/20 11:38:10;;;;;;;2.43;1.60;;;12.90;98.00;;;;;;5034723;28;20453;-90
2023/11/20 11:40:56;;;;;;;3.00;1.80;;;12.80;98.00;;;;;;5034734;28;20446;-90
2023/11/20 11:43:38;;;;;;;4.13;1.57;;;12.60;98.00;;;;;;5035327;28;20726;-90
2023/11/20 11:46:07;;;;;;;5.33;1.57;;;12.50;98.00;;;;;;5036336;28;20851;-89
2023/11/20 11:49:25;;;;;;;3.77;1.90;;;12.40;98.00;;;;;;5036598;28;20949;-88
2023/11/20 11:51:53;;;;;;;2.17;1.50;;;12.30;98.00;;;;;;4990813;28;21001;-89
2023/11/20 11:54:24;;;;;;;4.07;1.83;;;12.40;98.00;;;;;;5035771;28;20457;-88
2023/11/20 12:00:36;;;;;;;3.93;1.50;;;12.50;98.00;;;;;;5025622;28;20444;-89
2023/11/20 12:03:38;;;;;;;4.20;1.70;;;12.60;98.00;;;;;;5035493;28;20599;-89
2023/11/20 12:06:19;;;;;;;2.97;1.50;;;12.80;98.00;;;;;;5037501;28;20466;-88
2023/11/20 12:09:32;;;;;;;5.30;1.80;;;13.00;98.00;;;;;;5036575;28;20458;-88
2023/11/20 12:12:01;;;;;;;5.07;1.70;;;13.00;98.00;;;;;;5021754;28;20924;-89
2023/11/20 12:14:28;;;;;;;1.90;1.50;;;12.80;98.00;;;;;;5035002;28;20544;-89
2023/11/20 12:17:02;;;;;;;1.93;1.40;;;12.80;98.00;;;;;;5034625;28;20458;-89
2023/11/20 12:19:33;;;;;;;1.87;1.30;;;12.70;98.00;;;;;;5034862;28;20441;-90
2023/11/20 12:22:01;;;;;;;2.53;1.20;;;12.80;98.00;;;;;;5037388;28;20837;-88
2023/11/20 12:24:29;;;;;;;3.30;1.30;;;12.70;98.00;;;;;;5040019;28;20478;-88
2023/11/20 12:26:57;;;;;;;2.07;1.40;;;12.90;98.00;;;;;;5038908;28;20527;-88
2023/11/20 12:29:26;;;;;;;3.73;1.50;;;13.50;98.00;;;;;;5038315;28;20962;-89
2023/11/20 12:31:55;;;;;;;2.03;1.40;;;14.10;98.00;;;;;;5035519;28;20471;-90
2023/11/20 12:34:24;;;;;;;1.60;1.20;;;14.70;98.00;;;;;;5036019;28;20440;-89
2023/11/20 12:36:53;;;;;;;1.20;1.10;;;15.10;98.00;;;;;;5036283;28;20837;-89
2023/11/20 12:39:24;;;;;;;4.43;1.43;;;15.20;98.00;;;;;;5036475;28;20462;-88
2023/11/20 12:41:51;;;;;;;2.60;1.20;;;15.50;98.00;;;;;;5035723;28;21055;-89
2023/11/20 12:44:18;;;;;;;1.40;1.20;;;15.50;98.00;;;;;;5035579;28;20516;-88
2023/11/20 12:46:48;;;;;;;3.00;1.47;;;15.90;98.00;;;;;;5035849;28;20480;-88
2023/11/20 12:55:29;;;;;;;1.57;1.30;;;16.50;98.00;;;;;;5032706;28;20422;-88
2023/11/20 13:07:24;;;;;;;1.30;1.20;;;14.10;98.00;;;;;;5032026;28;20455;-88
2023/11/20 13:12:52;;;;;;;2.40;1.30;;;13.70;98.00;;;;;;5039383;22;20492;-60
2023/11/20 13:15:23;;;;;;;2.50;1.30;;;13.70;98.00;;;;;;5032008;28;20457;-61
2023/11/20 13:17:53;;;;;;;1.90;1.30;;;13.50;98.00;;;;;;5031998;28;20783;-59